C. Innovator — 3FGA2 — position and weather

sailwx.info

Track history (hours):
 
Tides and Currents Weather Stations Pressure Air Temp Water Temp Dewpoint Dewpoint Depression Visibility Wind Speed Wind Dir Waves Ship Positions

C. Innovator

Last reported at 2018-Apr-16 17:42 UTC. Time now 2018-Apr-22 13:58 UTC.
Position N 20°18' E 066°28'.

Length 333 m; draft 11.2 m.

Type: Ship. MMSI: 373838000.

Date/timePositionNaut miles runAvg speedWind from/ knotsBaromVisibWave heightAir tempDewpointWater temp
2018-Apr-16 17:42N 20°18' E 066°28'210.4
2018-Apr-16 17:29N 20°16' E 066°30'2010.3
2018-Apr-16 15:32N 19°59' E 066°41'010.0
2018-Apr-16 15:30N 19°58' E 066°41'510.1
2018-Apr-16 14:59N 19°54' E 066°44'510.3
2018-Apr-16 14:30N 19°50' E 066°47'510.2
2018-Apr-16 14:00N 19°45' E 066°49'510.3
2018-Apr-16 13:29N 19°41' E 066°52'510.3
2018-Apr-16 12:58N 19°36' E 066°55'510.1
2018-Apr-16 12:30N 19°32' E 066°58'610.3
2018-Apr-16 11:55N 19°27' E 067°01'610.4
2018-Apr-16 11:21N 19°22' E 067°04'410.1
2018-Apr-16 10:57N 19°19' E 067°07'510.0
2018-Apr-16 10:28N 19°15' E 067°09'510.0
2018-Apr-16 10:00N 19°11' E 067°12'5 9.9
2018-Apr-16 09:30N 19°07' E 067°15'5 9.9
2018-Apr-16 09:00N 19°03' E 067°18'510.0
2018-Apr-16 08:29N 18°58' E 067°21'610.1
2018-Apr-16 07:56N 18°54' E 067°24'510.4
2018-Apr-16 07:24N 18°49' E 067°27'510.4
2018-Apr-16 06:58N 18°45' E 067°29'510.5
2018-Apr-16 06:29N 18°41' E 067°32'510.5
2018-Apr-16 05:58N 18°36' E 067°35'510.5
2018-Apr-16 05:30N 18°32' E 067°38'510.5
2018-Apr-16 05:00N 18°27' E 067°41'510.5
2018-Apr-16 04:30N 18°23' E 067°44'1210.6
2018-Apr-16 03:22N 18°13' E 067°51'6110.3
2018-Apr-15 21:26N 17°21' E 068°25'38 9.7
2018-Apr-15 17:29N 16°48' E 068°46'15 9.8
2018-Apr-15 15:57N 16°35' E 068°55'4 9.9
2018-Apr-15 15:30N 16°32' E 068°57'1410.0
2018-Apr-15 14:03N 16°19' E 069°05'110.0
2018-Apr-15 13:55N 16°18' E 069°06'710.1
2018-Apr-15 13:13N 16°12' E 069°10'410.1
2018-Apr-15 12:51N 16°09' E 069°12'5010.0
2018-Apr-15 07:52N 15°27' E 069°39'410.2
2018-Apr-15 07:30N 15°24' E 069°41'510.3
2018-Apr-15 07:00N 15°19' E 069°44'510.8
2018-Apr-15 06:30N 15°15' E 069°47'714.2
2018-Apr-15 05:59N 15°08' E 069°51'5 9.9
2018-Apr-15 05:28N 15°04' E 069°54'5 9.7
2018-Apr-15 04:59N 15°00' E 069°57'5 9.5
2018-Apr-15 04:30N 14°56' E 069°59'5 9.4
2018-Apr-15 04:00N 14°52' E 070°02'5 9.6
2018-Apr-15 03:30N 14°48' E 070°04'5 9.9
2018-Apr-15 03:00N 14°44' E 070°07'1610.1
2018-Apr-15 01:26N 14°31' E 070°16'410.3
2018-Apr-15 01:00N 14°27' E 070°19'810.3
2018-Apr-15 00:13N 14°21' E 070°24'210.3
2018-Apr-15 00:00N 14°19' E 070°25'1510.3
2018-Apr-14 22:32N 14°07' E 070°34'110.3
2018-Apr-14 22:29N 14°06' E 070°35'510.4
2018-Apr-14 22:00N 14°02' E 070°38'710.4
2018-Apr-14 21:21N 13°57' E 070°42'910.2
2018-Apr-14 20:27N 13°49' E 070°48'510.3
2018-Apr-14 19:58N 13°46' E 070°51'510.3
2018-Apr-14 19:30N 13°43' E 070°55'610.3
2018-Apr-14 18:55N 13°39' E 070°59'410.3
2018-Apr-14 18:30N 13°36' E 071°03'510.3
2018-Apr-14 18:00N 13°32' E 071°07'510.4
2018-Apr-14 17:30N 13°29' E 071°11'  
Track history (hours):
 
Tides and Currents Weather Stations Pressure Air Temp Water Temp Dewpoint Dewpoint Depression Visibility Wind Speed Wind Dir Waves Ship Positions

C. Innovator

Last reported at 2018-Apr-16 17:42 UTC. Time now 2018-Apr-22 13:58 UTC.
Position N 20°18' E 066°28'.

Length 333 m; draft 11.2 m.

Type: Ship. MMSI: 373838000.

Date/timePositionNaut miles runAvg speedWind from/ knotsBaromVisibWave heightAir tempDewpointWater temp
2018-Apr-16 17:42N 20°18' E 066°28'210.4
2018-Apr-16 17:29N 20°16' E 066°30'2010.3
2018-Apr-16 15:32N 19°59' E 066°41'010.0
2018-Apr-16 15:30N 19°58' E 066°41'510.1
2018-Apr-16 14:59N 19°54' E 066°44'510.3
2018-Apr-16 14:30N 19°50' E 066°47'510.2
2018-Apr-16 14:00N 19°45' E 066°49'510.3
2018-Apr-16 13:29N 19°41' E 066°52'510.3
2018-Apr-16 12:58N 19°36' E 066°55'510.1
2018-Apr-16 12:30N 19°32' E 066°58'610.3
2018-Apr-16 11:55N 19°27' E 067°01'610.4
2018-Apr-16 11:21N 19°22' E 067°04'410.1
2018-Apr-16 10:57N 19°19' E 067°07'510.0
2018-Apr-16 10:28N 19°15' E 067°09'510.0
2018-Apr-16 10:00N 19°11' E 067°12'5 9.9
2018-Apr-16 09:30N 19°07' E 067°15'5 9.9
2018-Apr-16 09:00N 19°03' E 067°18'510.0
2018-Apr-16 08:29N 18°58' E 067°21'610.1
2018-Apr-16 07:56N 18°54' E 067°24'510.4
2018-Apr-16 07:24N 18°49' E 067°27'510.4
2018-Apr-16 06:58N 18°45' E 067°29'510.5
2018-Apr-16 06:29N 18°41' E 067°32'510.5
2018-Apr-16 05:58N 18°36' E 067°35'510.5
2018-Apr-16 05:30N 18°32' E 067°38'510.5
2018-Apr-16 05:00N 18°27' E 067°41'510.5
2018-Apr-16 04:30N 18°23' E 067°44'1210.6
2018-Apr-16 03:22N 18°13' E 067°51'6110.3
2018-Apr-15 21:26N 17°21' E 068°25'38 9.7
2018-Apr-15 17:29N 16°48' E 068°46'15 9.8
2018-Apr-15 15:57N 16°35' E 068°55'4 9.9
2018-Apr-15 15:30N 16°32' E 068°57'1410.0
2018-Apr-15 14:03N 16°19' E 069°05'110.0
2018-Apr-15 13:55N 16°18' E 069°06'710.1
2018-Apr-15 13:13N 16°12' E 069°10'410.1
2018-Apr-15 12:51N 16°09' E 069°12'5010.0
2018-Apr-15 07:52N 15°27' E 069°39'410.2
2018-Apr-15 07:30N 15°24' E 069°41'510.3
2018-Apr-15 07:00N 15°19' E 069°44'510.8
2018-Apr-15 06:30N 15°15' E 069°47'714.2
2018-Apr-15 05:59N 15°08' E 069°51'5 9.9
2018-Apr-15 05:28N 15°04' E 069°54'5 9.7
2018-Apr-15 04:59N 15°00' E 069°57'5 9.5
2018-Apr-15 04:30N 14°56' E 069°59'5 9.4
2018-Apr-15 04:00N 14°52' E 070°02'5 9.6
2018-Apr-15 03:30N 14°48' E 070°04'5 9.9
2018-Apr-15 03:00N 14°44' E 070°07'1610.1
2018-Apr-15 01:26N 14°31' E 070°16'410.3
2018-Apr-15 01:00N 14°27' E 070°19'810.3
2018-Apr-15 00:13N 14°21' E 070°24'210.3
2018-Apr-15 00:00N 14°19' E 070°25'1510.3
2018-Apr-14 22:32N 14°07' E 070°34'110.3
2018-Apr-14 22:29N 14°06' E 070°35'510.4
2018-Apr-14 22:00N 14°02' E 070°38'710.4
2018-Apr-14 21:21N 13°57' E 070°42'910.2
2018-Apr-14 20:27N 13°49' E 070°48'510.3
2018-Apr-14 19:58N 13°46' E 070°51'510.3
2018-Apr-14 19:30N 13°43' E 070°55'610.3
2018-Apr-14 18:55N 13°39' E 070°59'410.3
2018-Apr-14 18:30N 13°36' E 071°03'510.3
2018-Apr-14 18:00N 13°32' E 071°07'510.4
2018-Apr-14 17:30N 13°29' E 071°11'  

Dump ship's entire track history